L26 weather

Hesperia Airport
Hesperia, California, United States

Public forecast

Using degrees Fahrenheit for public forecast. Weather courtesy of forecast.io.

Closest aviation weather report (METAR) to Hesperia Airport

Report is more than 6 hours old.

Closest report is Apple Valley Airport, 13.5 nm (25.0 km) NNE. Retrieved 2011/09/19 12:56 UTC (9 years ago):

KAPV 191256Z AUTO 05004KT 10SM FEW075 SCT090 BKN110 18/18 A2996 RMK AO2 SLP144 T01830178 $

Closest aviation forecast (TAF) to Hesperia Airport

Closest forecast is San Bernardino International Airport, 17.4 nm (32.2 km) SSE. Retrieved 2020/08/06 06:22 UTC (4 hours ago):

TAF KSBD 060520Z 0606/0706 VRB04KT P6SM SKC FM061100 VRB04KT 4SM HZ OVC009 FM061600 VRB04KT 6SM HZ SKC FM062100 26010KT P6SM SKC FM070300 VRB04KT P6SM SKC